createdAt,value
2019-05-03T00:02:15.853Z,100461.84
2019-05-03T00:04:47.276Z,100461.13
2019-05-03T00:07:17.246Z,100460.00
2019-05-03T00:09:47.081Z,100462.08
2019-05-03T00:12:16.899Z,100466.44
2019-05-03T00:14:48.295Z,100467.78
2019-05-03T00:17:18.142Z,100471.98
2019-05-03T00:19:47.816Z,100461.45
2019-05-03T00:22:17.591Z,100458.80
2019-05-03T00:24:47.316Z,100467.89
2019-05-03T00:27:17.079Z,100476.02
2019-05-03T00:29:46.791Z,100474.34
2019-05-03T00:32:16.477Z,100479.66
2019-05-03T00:34:52.104Z,100479.59
2019-05-03T00:37:23.895Z,100483.30
2019-05-03T00:40:07.186Z,100486.73
2019-05-03T00:42:37.240Z,100480.07
2019-05-03T00:45:10.102Z,100473.61
2019-05-03T00:47:42.013Z,100478.20
2019-05-03T00:50:16.261Z,100473.20
2019-05-03T00:52:46.031Z,100476.29
2019-05-03T00:55:19.081Z,100467.83
2019-05-03T00:57:47.523Z,100473.54
2019-05-03T01:00:17.492Z,100468.09
2019-05-03T01:02:47.384Z,100467.86
2019-05-03T01:05:17.298Z,100475.13
2019-05-03T01:07:47.080Z,100470.68
2019-05-03T01:10:17.041Z,100473.39
2019-05-03T01:12:46.866Z,100476.07
2019-05-03T01:15:18.467Z,100476.05
2019-05-03T01:17:48.957Z,100484.20
2019-05-03T01:20:18.948Z,100478.11
2019-05-03T01:22:48.845Z,100472.58
2019-05-03T01:25:29.220Z,100476.07
2019-05-03T01:27:52.033Z,100482.62
2019-05-03T01:30:22.624Z,100480.23
2019-05-03T01:32:52.694Z,100478.58
2019-05-03T01:35:22.508Z,100480.70
2019-05-03T01:37:52.338Z,100479.36
2019-05-03T01:40:22.169Z,100482.02
2019-05-03T01:42:51.992Z,100480.38
2019-05-03T01:45:22.745Z,100486.93
2019-05-03T01:48:03.342Z,100490.73
2019-05-03T01:50:34.966Z,100479.22
2019-05-03T01:53:06.447Z,100481.57
2019-05-03T01:55:52.246Z,100488.36
2019-05-03T01:58:23.994Z,100482.45
2019-05-03T02:00:58.438Z,100489.78
2019-05-03T02:03:32.819Z,100486.88
2019-05-03T02:06:02.792Z,100479.47
2019-05-03T02:08:32.750Z,100481.59
2019-05-03T02:11:02.613Z,100480.16
2019-05-03T02:13:32.404Z,100485.30
2019-05-03T02:16:02.450Z,100488.16
2019-05-03T02:18:32.810Z,100485.23
2019-05-03T02:21:02.569Z,100487.11
2019-05-03T02:23:32.433Z,100490.38
2019-05-03T02:26:03.123Z,100501.58
2019-05-03T02:28:33.342Z,100493.38
2019-05-03T02:31:03.699Z,100496.44
2019-05-03T02:33:33.682Z,100495.89
2019-05-03T02:36:04.030Z,100500.48
2019-05-03T02:38:34.070Z,100495.40
2019-05-03T02:41:03.927Z,100495.00
2019-05-03T02:43:36.451Z,100497.76
2019-05-03T02:46:11.216Z,100499.44
2019-05-03T02:48:48.727Z,100494.59
2019-05-03T02:51:18.606Z,100497.67
2019-05-03T02:53:48.508Z,100488.30
2019-05-03T02:56:22.567Z,100494.20
2019-05-03T02:58:49.984Z,100491.44
2019-05-03T03:01:19.845Z,100489.00
2019-05-03T03:03:50.804Z,100499.28
2019-05-03T03:06:20.724Z,100498.00
2019-05-03T03:08:51.211Z,100495.83
2019-05-03T03:11:22.556Z,100505.13
2019-05-03T03:13:55.287Z,100504.67
2019-05-03T03:16:31.399Z,100508.70
2019-05-03T03:19:06.748Z,100506.14
2019-05-03T03:21:40.967Z,100514.75
2019-05-03T03:24:16.940Z,100510.42
2019-05-03T03:26:49.875Z,100511.03
2019-05-03T03:29:25.167Z,100516.02
2019-05-03T03:32:11.048Z,100519.33
2019-05-03T03:35:10.550Z,100516.59
2019-05-03T03:37:35.464Z,100518.64
2019-05-03T03:40:06.540Z,100518.55
2019-05-03T03:42:38.152Z,100519.64
2019-05-03T03:45:08.166Z,100522.91
2019-05-03T03:47:39.148Z,100523.28
2019-05-03T03:50:10.047Z,100529.41
2019-05-03T03:52:41.664Z,100525.26
2019-05-03T03:55:11.942Z,100526.84
2019-05-03T03:57:42.497Z,100527.12
2019-05-03T04:00:12.466Z,100535.63
2019-05-03T04:02:42.444Z,100532.33
2019-05-03T04:05:15.723Z,100541.80
2019-05-03T04:07:46.392Z,100544.70
2019-05-03T04:10:16.494Z,100552.15
2019-05-03T04:12:47.895Z,100552.64
2019-05-03T04:15:19.538Z,100558.40
2019-05-03T04:17:51.248Z,100559.84
2019-05-03T04:20:25.449Z,100559.52
2019-05-03T04:22:56.072Z,100562.14
2019-05-03T04:25:26.592Z,100567.20
2019-05-03T04:27:56.928Z,100569.96
2019-05-03T04:30:26.808Z,100567.66
2019-05-03T04:32:56.846Z,100576.75
2019-05-03T04:35:27.741Z,100575.18
2019-05-03T04:37:57.615Z,100585.29
2019-05-03T04:40:27.496Z,100583.83
2019-05-03T04:42:57.325Z,100590.13
2019-05-03T04:45:27.174Z,100585.14
2019-05-03T04:47:56.948Z,100584.75
2019-05-03T04:50:26.933Z,100586.55
2019-05-03T04:52:56.939Z,100581.30
2019-05-03T04:55:27.069Z,100590.05
2019-05-03T04:57:57.020Z,100595.99
2019-05-03T05:00:26.910Z,100594.77
2019-05-03T05:02:56.653Z,100599.46
2019-05-03T05:05:26.586Z,100595.77
2019-05-03T05:07:56.277Z,100596.95
2019-05-03T05:10:26.504Z,100609.61
2019-05-03T05:12:56.229Z,100610.39
2019-05-03T05:15:26.799Z,100607.31
2019-05-03T05:17:58.376Z,100615.41
2019-05-03T05:20:38.557Z,100617.63
2019-05-03T05:23:08.414Z,100619.55
2019-05-03T05:25:39.815Z,100621.32
2019-05-03T05:28:29.373Z,100624.09
2019-05-03T05:31:00.839Z,100627.83
2019-05-03T05:33:30.579Z,100630.56
2019-05-03T05:36:00.335Z,100629.94
2019-05-03T05:38:30.551Z,100631.98
2019-05-03T05:41:00.471Z,100631.39
2019-05-03T05:43:30.211Z,100633.69
2019-05-03T05:46:00.029Z,100632.48
2019-05-03T05:48:37.547Z,100640.44
2019-05-03T05:51:07.451Z,100649.48
2019-05-03T05:53:37.196Z,100643.64
2019-05-03T05:56:17.462Z,100646.06
2019-05-03T05:58:55.372Z,100645.70
2019-05-03T06:01:39.077Z,100648.10
2019-05-03T06:04:10.114Z,100650.34
2019-05-03T06:06:55.340Z,100646.45
2019-05-03T06:09:29.899Z,100649.31
2019-05-03T06:12:01.364Z,100653.27
2019-05-03T06:14:34.549Z,100653.41
2019-05-03T06:17:11.931Z,100648.38
2019-05-03T06:19:44.931Z,100648.73
2019-05-03T06:22:16.503Z,100643.27
2019-05-03T06:24:54.391Z,100649.20
2019-05-03T06:27:28.393Z,100652.57
2019-05-03T06:29:59.950Z,100659.66
2019-05-03T06:32:31.424Z,100646.30
2019-05-03T06:35:01.148Z,100651.73
2019-05-03T06:37:32.707Z,100651.61
2019-05-03T06:40:05.762Z,100646.04
2019-05-03T06:42:35.553Z,100641.48
2019-05-03T06:45:11.495Z,100648.84
2019-05-03T06:47:40.250Z,100646.10
2019-05-03T06:50:11.203Z,100651.25
2019-05-03T06:52:40.959Z,100652.22
2019-05-03T06:55:10.965Z,100658.85
2019-05-03T06:57:45.582Z,100650.95
2019-05-03T07:00:32.247Z,100654.56
2019-05-03T07:03:04.941Z,100652.87
2019-05-03T07:05:51.442Z,100652.29
2019-05-03T07:08:39.247Z,100656.56
2019-05-03T07:11:10.106Z,100650.53
2019-05-03T07:13:40.023Z,100653.89
2019-05-03T07:16:09.895Z,100653.52
2019-05-03T07:18:39.717Z,100658.28
2019-05-03T07:21:09.577Z,100658.30
2019-05-03T07:23:39.314Z,100658.95
2019-05-03T07:26:09.284Z,100660.76
2019-05-03T07:28:47.130Z,100653.59
2019-05-03T07:31:10.641Z,100651.77
2019-05-03T07:33:40.476Z,100652.41
2019-05-03T07:36:10.354Z,100651.22
2019-05-03T07:38:40.253Z,100655.68
2019-05-03T07:41:10.059Z,100658.37
2019-05-03T07:43:39.825Z,100657.23
2019-05-03T07:46:09.625Z,100651.18
2019-05-03T07:48:39.498Z,100642.46
2019-05-03T07:51:09.297Z,100656.89
2019-05-03T07:53:39.131Z,100659.27
2019-05-03T07:56:14.943Z,100653.08
2019-05-03T07:58:59.065Z,100657.92
2019-05-03T08:01:28.393Z,100645.98
2019-05-03T08:03:58.535Z,100645.50
2019-05-03T08:06:28.338Z,100645.66
2019-05-03T08:08:58.181Z,100650.72
2019-05-03T08:11:27.997Z,100649.36
2019-05-03T08:13:57.916Z,100655.16
2019-05-03T08:16:27.749Z,100658.49
2019-05-03T08:18:57.714Z,100667.55
2019-05-03T08:21:27.445Z,100681.92
2019-05-03T08:23:57.190Z,100682.01
2019-05-03T08:26:27.063Z,100683.69
2019-05-03T08:28:56.883Z,100678.67
2019-05-03T08:31:35.381Z,100674.09
2019-05-03T08:34:06.971Z,100674.98
2019-05-03T08:36:38.432Z,100668.93
2019-05-03T08:39:08.239Z,100664.44
2019-05-03T08:41:39.848Z,100665.75
2019-05-03T08:44:09.850Z,100657.62
2019-05-03T08:46:39.745Z,100664.30
2019-05-03T08:49:09.571Z,100663.30
2019-05-03T08:51:39.387Z,100658.63
2019-05-03T08:54:09.098Z,100652.93
2019-05-03T08:56:38.861Z,100655.98
2019-05-03T08:59:08.607Z,100652.81
2019-05-03T09:01:39.494Z,100651.47
2019-05-03T09:04:09.478Z,100656.05
2019-05-03T09:06:39.338Z,100654.19
2019-05-03T09:09:16.808Z,100642.11
2019-05-03T09:11:46.556Z,100639.70
2019-05-03T09:14:17.931Z,100642.73
2019-05-03T09:16:47.826Z,100629.55
2019-05-03T09:19:17.924Z,100621.24
2019-05-03T09:21:47.649Z,100632.45
2019-05-03T09:24:17.375Z,100638.19
2019-05-03T09:26:47.214Z,100632.55
2019-05-03T09:29:17.030Z,100628.72
2019-05-03T09:31:46.831Z,100643.75
2019-05-03T09:34:16.631Z,100645.00
2019-05-03T09:36:46.395Z,100644.14
2019-05-03T09:39:16.118Z,100642.95
2019-05-03T09:41:46.001Z,100637.47
2019-05-03T09:44:15.739Z,100637.76
2019-05-03T09:46:45.566Z,100636.64
2019-05-03T09:49:16.585Z,100635.77
2019-05-03T09:51:46.777Z,100628.52
2019-05-03T09:54:18.277Z,100626.14
2019-05-03T09:56:58.553Z,100623.98
2019-05-03T09:59:29.334Z,100611.19
2019-05-03T10:01:59.664Z,100621.97
2019-05-03T10:04:29.410Z,100609.33
2019-05-03T10:06:59.362Z,100603.98
2019-05-03T10:09:29.303Z,100615.05
2019-05-03T10:11:59.894Z,100616.71
2019-05-03T10:14:29.912Z,100623.75
2019-05-03T10:17:01.467Z,100624.41
2019-05-03T10:19:37.661Z,100624.98
2019-05-03T10:22:04.564Z,100634.00
2019-05-03T10:24:35.111Z,100627.80
2019-05-03T10:27:05.702Z,100618.73
2019-05-03T10:29:35.643Z,100618.22
2019-05-03T10:32:07.194Z,100614.31
2019-05-03T10:34:37.466Z,100618.67
2019-05-03T10:37:08.909Z,100624.56
2019-05-03T10:39:38.795Z,100622.00
2019-05-03T10:42:09.021Z,100614.05
2019-05-03T10:44:38.785Z,100621.69
2019-05-03T10:47:08.914Z,100628.91
2019-05-03T10:49:38.695Z,100617.10
2019-05-03T10:52:09.932Z,100622.66
2019-05-03T10:54:39.668Z,100618.77
2019-05-03T10:57:11.161Z,100629.30
2019-05-03T10:59:40.910Z,100621.88
2019-05-03T11:02:12.301Z,100618.09
2019-05-03T11:04:45.650Z,100631.52
2019-05-03T11:07:14.907Z,100628.20
2019-05-03T11:09:49.542Z,100630.20
2019-05-03T11:12:16.583Z,100615.70
2019-05-03T11:14:46.411Z,100614.72
2019-05-03T11:17:16.221Z,100616.45
2019-05-03T11:19:46.117Z,100621.60
2019-05-03T11:22:15.994Z,100610.91
2019-05-03T11:24:45.983Z,100613.59
2019-05-03T11:27:20.700Z,100616.21
2019-05-03T11:29:50.449Z,100614.90
2019-05-03T11:32:25.514Z,100621.91
2019-05-03T11:35:11.535Z,100612.91
2019-05-03T11:37:45.451Z,100619.22
2019-05-03T11:40:15.842Z,100618.83
2019-05-03T11:42:46.512Z,100624.80
2019-05-03T11:45:16.689Z,100620.44
2019-05-03T11:47:46.487Z,100622.66
2019-05-03T11:50:16.414Z,100620.95
2019-05-03T11:52:47.078Z,100611.91
2019-05-03T11:55:17.350Z,100626.18
2019-05-03T11:57:47.095Z,100613.56
2019-05-03T12:00:20.141Z,100621.41
2019-05-03T12:02:51.502Z,100616.74
2019-05-03T12:05:24.507Z,100614.90
2019-05-03T12:07:54.846Z,100625.56
2019-05-03T12:10:36.031Z,100615.59
2019-05-03T12:12:57.849Z,100614.24
2019-05-03T12:15:27.666Z,100611.98
2019-05-03T12:17:59.743Z,100620.10
2019-05-03T12:20:31.185Z,100611.86
2019-05-03T12:23:02.118Z,100613.02
2019-05-03T12:25:33.026Z,100608.16
2019-05-03T12:28:05.874Z,100604.59
2019-05-03T12:30:35.757Z,100612.60
2019-05-03T12:33:06.197Z,100605.08
2019-05-03T12:35:36.406Z,100599.27
2019-05-03T12:38:06.224Z,100611.20
2019-05-03T12:40:36.169Z,100608.13
2019-05-03T12:43:06.525Z,100607.15
2019-05-03T12:45:36.350Z,100602.53
2019-05-03T12:48:06.204Z,100601.51
2019-05-03T12:50:36.073Z,100604.55
2019-05-03T12:53:05.895Z,100600.05
2019-05-03T12:55:35.874Z,100602.46
2019-05-03T12:58:06.533Z,100599.39
2019-05-03T13:00:47.956Z,100598.70
2019-05-03T13:03:17.227Z,100600.41
2019-05-03T13:05:47.108Z,100597.50
2019-05-03T13:08:38.181Z,100595.20
2019-05-03T13:11:08.500Z,100585.52
2019-05-03T13:13:38.385Z,100587.92
2019-05-03T13:16:09.881Z,100601.51
2019-05-03T13:18:39.660Z,100606.51
2019-05-03T13:21:09.549Z,100600.80
2019-05-03T13:23:39.363Z,100592.30
2019-05-03T13:26:09.176Z,100587.95
2019-05-03T13:28:38.938Z,100584.17
2019-05-03T13:31:08.688Z,100596.78
2019-05-03T13:33:38.434Z,100586.53
2019-05-03T13:36:08.244Z,100581.02
2019-05-03T13:38:38.014Z,100577.30
2019-05-03T13:41:07.826Z,100579.33
2019-05-03T13:43:37.677Z,100577.67
2019-05-03T13:46:07.483Z,100580.72
2019-05-03T13:48:45.555Z,100599.20
2019-05-03T13:51:08.663Z,100597.71
2019-05-03T13:53:38.415Z,100598.03
2019-05-03T13:56:08.157Z,100595.33
2019-05-03T13:58:37.914Z,100595.08
2019-05-03T14:01:07.800Z,100591.38
2019-05-03T14:03:37.684Z,100584.68
2019-05-03T14:06:08.957Z,100586.56
2019-05-03T14:08:39.125Z,100577.68
2019-05-03T14:11:08.929Z,100582.75
2019-05-03T14:13:38.848Z,100584.88
2019-05-03T14:16:08.590Z,100582.05
2019-05-03T14:18:41.215Z,100585.90
2019-05-03T14:21:24.470Z,100578.27
2019-05-03T14:24:10.048Z,100577.86
2019-05-03T14:26:41.786Z,100575.11
2019-05-03T14:29:11.643Z,100568.78
2019-05-03T14:31:41.405Z,100558.56
2019-05-03T14:34:11.149Z,100563.92
2019-05-03T14:36:41.426Z,100554.31
2019-05-03T14:39:11.408Z,100557.17
2019-05-03T14:41:41.193Z,100549.33
2019-05-03T14:44:14.441Z,100548.84
2019-05-03T14:46:42.454Z,100541.60
2019-05-03T14:49:12.366Z,100539.27
2019-05-03T14:51:42.076Z,100534.65
2019-05-03T14:54:11.915Z,100536.69
2019-05-03T14:56:45.354Z,100525.26
2019-05-03T14:59:34.725Z,100518.03
2019-05-03T15:02:24.605Z,100523.95
2019-05-03T15:04:54.855Z,100520.14
2019-05-03T15:07:25.566Z,100518.19
2019-05-03T15:09:55.462Z,100516.43
2019-05-03T15:12:25.287Z,100510.55
2019-05-03T15:14:55.053Z,100517.57
2019-05-03T15:17:24.864Z,100516.88
2019-05-03T15:19:54.850Z,100505.82
2019-05-03T15:22:25.379Z,100501.81
2019-05-03T15:24:55.284Z,100505.97
2019-05-03T15:27:25.036Z,100501.97
2019-05-03T15:29:55.511Z,100502.58
2019-05-03T15:32:25.677Z,100511.30
2019-05-03T15:34:55.495Z,100510.70
2019-05-03T15:37:25.671Z,100504.47
2019-05-03T15:39:55.491Z,100510.92
2019-05-03T15:42:26.306Z,100513.03
2019-05-03T15:45:00.255Z,100505.20
2019-05-03T15:47:31.694Z,100500.44
2019-05-03T15:50:04.951Z,100501.57
2019-05-03T15:52:35.319Z,100499.73
2019-05-03T15:55:07.472Z,100487.14
2019-05-03T15:57:37.386Z,100492.47
2019-05-03T16:00:09.987Z,100490.29
2019-05-03T16:02:39.734Z,100489.28
2019-05-03T16:05:09.577Z,100487.33
2019-05-03T16:07:39.454Z,100485.00
2019-05-03T16:10:09.609Z,100483.80
2019-05-03T16:12:39.498Z,100471.89
2019-05-03T16:15:09.433Z,100473.47
2019-05-03T16:17:39.263Z,100483.70
2019-05-03T16:20:09.335Z,100478.29
2019-05-03T16:22:39.276Z,100470.91
2019-05-03T16:25:09.976Z,100477.46
2019-05-03T16:27:47.391Z,100471.23
2019-05-03T16:30:19.245Z,100464.27
2019-05-03T16:32:49.104Z,100473.75
2019-05-03T16:35:18.929Z,100472.47
2019-05-03T16:37:48.764Z,100461.48
2019-05-03T16:40:18.528Z,100455.53
2019-05-03T16:42:48.242Z,100461.53
2019-05-03T16:45:18.017Z,100469.19
2019-05-03T16:47:47.856Z,100466.23
2019-05-03T16:50:17.982Z,100466.45
2019-05-03T16:52:47.805Z,100464.50
2019-05-03T16:55:17.706Z,100471.53
2019-05-03T16:57:47.407Z,100480.11
2019-05-03T17:00:17.893Z,100476.63
2019-05-03T17:02:47.792Z,100479.55
2019-05-03T17:05:25.289Z,100499.55
2019-05-03T17:08:15.344Z,100520.38
2019-05-03T17:10:54.493Z,100519.97
2019-05-03T17:13:25.227Z,100504.55
2019-05-03T17:15:55.077Z,100488.88
2019-05-03T17:18:24.804Z,100492.00
2019-05-03T17:20:54.855Z,100495.33
2019-05-03T17:23:26.004Z,100501.60
2019-05-03T17:25:55.737Z,100507.20
2019-05-03T17:28:25.480Z,100522.73
2019-05-03T17:30:55.346Z,100525.70
2019-05-03T17:33:25.363Z,100529.09
2019-05-03T17:35:55.281Z,100512.29
2019-05-03T17:38:25.024Z,100510.70
2019-05-03T17:40:56.428Z,100507.30
2019-05-03T17:43:27.825Z,100505.39
2019-05-03T17:45:59.227Z,100503.75
2019-05-03T17:48:29.148Z,100493.48
2019-05-03T17:50:58.938Z,100495.44
2019-05-03T17:53:39.374Z,100488.73
2019-05-03T17:56:15.258Z,100485.34
2019-05-03T17:59:02.033Z,100481.27
2019-05-03T18:01:36.710Z,100484.55
2019-05-03T18:04:11.987Z,100477.16
2019-05-03T18:06:58.441Z,100482.33
2019-05-03T18:09:29.815Z,100477.22
2019-05-03T18:12:06.437Z,100474.53
2019-05-03T18:14:36.267Z,100475.16
2019-05-03T18:17:06.139Z,100470.31
2019-05-03T18:19:35.948Z,100467.52
2019-05-03T18:22:05.856Z,100462.98
2019-05-03T18:24:35.684Z,100459.89
2019-05-03T18:27:05.849Z,100463.02
2019-05-03T18:29:35.762Z,100458.69
2019-05-03T18:32:05.925Z,100463.54
2019-05-03T18:34:35.719Z,100454.41
2019-05-03T18:37:05.578Z,100458.97
2019-05-03T18:39:35.559Z,100458.66
2019-05-03T18:42:07.096Z,100449.52
2019-05-03T18:44:38.596Z,100450.58
2019-05-03T18:47:10.153Z,100446.72
2019-05-03T18:49:40.153Z,100446.89
2019-05-03T18:52:09.875Z,100448.41
2019-05-03T18:54:39.690Z,100452.09
2019-05-03T18:57:09.449Z,100458.48
2019-05-03T18:59:39.304Z,100457.84
2019-05-03T19:02:09.643Z,100487.17
2019-05-03T19:04:46.716Z,100473.50
2019-05-03T19:07:34.771Z,100478.07
2019-05-03T19:10:08.581Z,100458.19
2019-05-03T19:12:40.038Z,100461.01
2019-05-03T19:15:10.952Z,100463.51
2019-05-03T19:17:42.324Z,100467.30
2019-05-03T19:20:17.036Z,100461.03
2019-05-03T19:22:46.923Z,100462.89
2019-05-03T19:25:16.739Z,100451.63
2019-05-03T19:27:46.501Z,100455.09
2019-05-03T19:30:17.068Z,100454.92
2019-05-03T19:32:46.811Z,100451.06
2019-05-03T19:35:16.706Z,100448.83
2019-05-03T19:37:46.980Z,100451.28
2019-05-03T19:40:16.863Z,100456.66
2019-05-03T19:42:46.798Z,100456.73
2019-05-03T19:45:16.687Z,100455.27
2019-05-03T19:47:46.403Z,100453.31
2019-05-03T19:50:16.253Z,100452.81
2019-05-03T19:53:05.001Z,100438.75
2019-05-03T19:55:34.516Z,100442.02
2019-05-03T19:58:05.444Z,100439.67
2019-05-03T20:00:36.986Z,100439.77
2019-05-03T20:03:08.410Z,100443.80
2019-05-03T20:05:48.685Z,100440.66
2019-05-03T20:08:35.527Z,100438.87
2019-05-03T20:11:15.238Z,100431.20
2019-05-03T20:13:45.566Z,100435.80
2019-05-03T20:16:15.717Z,100428.91
2019-05-03T20:18:45.857Z,100431.30
2019-05-03T20:21:15.575Z,100433.20
2019-05-03T20:23:47.140Z,100428.88
2019-05-03T20:26:17.172Z,100430.38
2019-05-03T20:28:46.985Z,100430.31
2019-05-03T20:31:16.754Z,100429.12
2019-05-03T20:33:46.563Z,100421.53
2019-05-03T20:36:16.316Z,100414.19
2019-05-03T20:38:46.135Z,100416.87
2019-05-03T20:41:15.899Z,100414.35
2019-05-03T20:44:05.357Z,100414.65
2019-05-03T20:46:36.974Z,100409.38
2019-05-03T20:49:09.630Z,100412.05
2019-05-03T20:51:39.425Z,100404.48
2019-05-03T20:54:09.257Z,100410.30
2019-05-03T20:56:39.020Z,100411.90
2019-05-03T20:59:08.919Z,100411.11
2019-05-03T21:01:39.269Z,100406.68
2019-05-03T21:04:09.027Z,100414.34
2019-05-03T21:06:39.236Z,100414.17
2019-05-03T21:09:09.126Z,100417.66
2019-05-03T21:11:38.983Z,100423.52
2019-05-03T21:14:08.860Z,100416.31
2019-05-03T21:16:40.384Z,100414.17
2019-05-03T21:19:20.843Z,100417.89
2019-05-03T21:21:52.772Z,100415.07
2019-05-03T21:24:27.684Z,100417.13
2019-05-03T21:26:57.417Z,100423.20
2019-05-03T21:29:27.201Z,100412.77
2019-05-03T21:31:57.164Z,100424.45
2019-05-03T21:34:27.423Z,100413.00
2019-05-03T21:36:57.142Z,100419.70
2019-05-03T21:39:26.954Z,100413.30
2019-05-03T21:41:56.724Z,100415.98
2019-05-03T21:44:30.731Z,100414.72
2019-05-03T21:47:04.899Z,100411.33
2019-05-03T21:49:45.610Z,100413.92
2019-05-03T21:52:15.359Z,100414.47
2019-05-03T21:54:45.343Z,100405.63
2019-05-03T21:57:16.615Z,100405.63
2019-05-03T21:59:46.508Z,100406.41
2019-05-03T22:02:21.730Z,100397.02
2019-05-03T22:04:51.506Z,100394.42
2019-05-03T22:07:21.254Z,100397.67
2019-05-03T22:09:51.091Z,100393.26
2019-05-03T22:12:20.911Z,100389.56
2019-05-03T22:14:55.392Z,100397.13
2019-05-03T22:17:44.654Z,100394.91
2019-05-03T22:20:15.957Z,100400.98
2019-05-03T22:22:47.379Z,100402.39
2019-05-03T22:25:18.807Z,100404.53
2019-05-03T22:27:48.643Z,100401.18
2019-05-03T22:30:18.412Z,100406.30
2019-05-03T22:32:48.162Z,100409.56
2019-05-03T22:35:18.000Z,100402.45
2019-05-03T22:37:47.726Z,100401.11
2019-05-03T22:40:17.457Z,100392.61
2019-05-03T22:42:47.251Z,100389.92
2019-05-03T22:45:16.955Z,100393.16
2019-05-03T22:47:46.702Z,100402.30
2019-05-03T22:50:16.693Z,100405.71
2019-05-03T22:52:46.537Z,100406.44
2019-05-03T22:55:16.311Z,100399.11
2019-05-03T22:57:46.082Z,100398.25
2019-05-03T23:00:15.958Z,100386.80
2019-05-03T23:02:45.705Z,100389.47
2019-05-03T23:05:15.503Z,100381.72
2019-05-03T23:07:46.991Z,100387.33
2019-05-03T23:10:17.430Z,100397.37
2019-05-03T23:12:47.360Z,100385.84
2019-05-03T23:15:17.251Z,100382.05
2019-05-03T23:17:47.047Z,100378.33
2019-05-03T23:20:21.398Z,100377.55
2019-05-03T23:22:54.321Z,100366.01
2019-05-03T23:25:25.022Z,100357.72
2019-05-03T23:27:55.166Z,100368.09
2019-05-03T23:30:25.053Z,100367.28
2019-05-03T23:32:54.864Z,100370.52
2019-05-03T23:35:24.772Z,100374.45
2019-05-03T23:37:54.499Z,100367.02
2019-05-03T23:40:25.398Z,100369.08
2019-05-03T23:42:55.126Z,100379.12
2019-05-03T23:45:25.524Z,100373.73
2019-05-03T23:47:55.447Z,100363.00
2019-05-03T23:50:31.281Z,100347.70
2019-05-03T23:53:01.031Z,100349.98
2019-05-03T23:55:35.085Z,100356.62
2019-05-03T23:58:05.002Z,100343.73
